createdAt,value
2017-07-26T00:00:14.425Z,80.57
2017-07-26T00:02:46.142Z,80.32
2017-07-26T00:05:17.587Z,80.39
2017-07-26T00:07:49.032Z,80.41
2017-07-26T00:10:22.316Z,80.37
2017-07-26T00:12:53.819Z,80.30
2017-07-26T00:15:25.937Z,80.04
2017-07-26T00:17:57.858Z,79.95
2017-07-26T00:20:29.339Z,79.60
2017-07-26T00:23:00.745Z,79.67
2017-07-26T00:25:32.246Z,79.19
2017-07-26T00:28:04.601Z,79.04
2017-07-26T00:30:35.985Z,79.15
2017-07-26T00:33:07.775Z,79.21
2017-07-26T00:35:39.167Z,79.02
2017-07-26T00:38:10.695Z,79.39
2017-07-26T00:40:42.835Z,79.05
2017-07-26T00:43:14.211Z,78.83
2017-07-26T00:45:45.608Z,78.95
2017-07-26T00:48:17.622Z,79.09
2017-07-26T00:50:49.064Z,79.26
2017-07-26T00:53:20.514Z,79.67
2017-07-26T00:55:51.968Z,80.06
2017-07-26T00:58:23.377Z,80.19
2017-07-26T01:00:54.795Z,79.95
2017-07-26T01:03:26.733Z,79.78
2017-07-26T01:05:58.171Z,79.68
2017-07-26T01:08:29.558Z,79.86
2017-07-26T01:11:00.975Z,79.37
2017-07-26T01:13:32.381Z,79.53
2017-07-26T01:16:04.969Z,79.85
2017-07-26T01:18:37.657Z,79.80
2017-07-26T01:21:09.172Z,79.77
2017-07-26T01:23:40.573Z,79.92
2017-07-26T01:26:12.993Z,79.95
2017-07-26T01:28:44.404Z,79.97
2017-07-26T01:31:15.832Z,79.90
2017-07-26T01:33:48.117Z,79.88
2017-07-26T01:36:20.635Z,79.91
2017-07-26T01:38:52.037Z,79.77
2017-07-26T01:41:24.389Z,79.64
2017-07-26T01:43:55.824Z,79.52
2017-07-26T01:46:27.221Z,79.54
2017-07-26T01:48:58.952Z,78.78
2017-07-26T01:51:30.378Z,78.75
2017-07-26T01:54:02.473Z,78.55
2017-07-26T01:56:33.909Z,78.07
2017-07-26T01:59:05.691Z,77.84
2017-07-26T02:01:37.120Z,77.70
2017-07-26T02:04:09.216Z,77.33
2017-07-26T02:06:41.306Z,77.28
2017-07-26T02:09:12.681Z,77.41
2017-07-26T02:11:44.076Z,77.33
2017-07-26T02:14:18.510Z,77.14
2017-07-26T02:16:50.464Z,77.09
2017-07-26T02:19:21.894Z,77.43
2017-07-26T02:21:53.290Z,77.43
2017-07-26T02:24:25.085Z,77.85
2017-07-26T02:26:56.570Z,77.54
2017-07-26T02:29:27.972Z,77.71
2017-07-26T02:31:59.699Z,77.82
2017-07-26T02:34:31.066Z,77.62
2017-07-26T02:37:02.506Z,77.64
2017-07-26T02:39:34.428Z,77.85
2017-07-26T02:42:07.160Z,77.91
2017-07-26T02:44:38.537Z,77.69
2017-07-26T02:47:10.384Z,77.26
2017-07-26T02:49:41.806Z,77.17
2017-07-26T02:52:13.321Z,77.59
2017-07-26T02:54:44.983Z,78.28
2017-07-26T02:57:16.373Z,78.47
2017-07-26T02:59:47.741Z,78.48
2017-07-26T03:02:20.133Z,78.32
2017-07-26T03:04:51.859Z,78.51
2017-07-26T03:07:23.285Z,78.64
2017-07-26T03:09:54.697Z,78.66
2017-07-26T03:12:26.535Z,78.86
2017-07-26T03:14:58.538Z,78.99
2017-07-26T03:17:30.075Z,78.98
2017-07-26T03:20:01.510Z,78.89
2017-07-26T03:22:33.345Z,78.94
2017-07-26T03:25:04.735Z,78.93
2017-07-26T03:27:36.146Z,79.15
2017-07-26T03:30:08.146Z,79.09
2017-07-26T03:32:39.499Z,78.64
2017-07-26T03:35:10.849Z,78.54
2017-07-26T03:37:42.714Z,77.97
2017-07-26T03:40:14.317Z,77.85
2017-07-26T03:42:45.688Z,77.66
2017-07-26T03:45:17.424Z,77.81
2017-07-26T03:47:48.885Z,77.52
2017-07-26T03:50:20.267Z,77.63
2017-07-26T03:52:52.106Z,77.87
2017-07-26T03:55:23.521Z,77.95
2017-07-26T03:57:55.141Z,78.09
2017-07-26T04:00:26.611Z,78.22
2017-07-26T04:02:58.299Z,77.95
2017-07-26T04:05:29.706Z,77.97
2017-07-26T04:08:01.091Z,77.66
2017-07-26T04:10:32.523Z,77.71
2017-07-26T04:13:03.958Z,77.62
2017-07-26T04:15:35.351Z,77.88
2017-07-26T04:18:07.366Z,77.62
2017-07-26T04:20:38.815Z,77.77
2017-07-26T04:23:10.832Z,77.99
2017-07-26T04:25:42.230Z,78.03
2017-07-26T04:28:13.705Z,77.63
2017-07-26T04:30:45.119Z,77.63
2017-07-26T04:33:16.821Z,77.65
2017-07-26T04:35:48.257Z,77.54
2017-07-26T04:38:19.670Z,77.34
2017-07-26T04:40:51.020Z,77.19
2017-07-26T04:43:22.481Z,76.90
2017-07-26T04:45:53.893Z,77.10
2017-07-26T04:48:25.822Z,76.90
2017-07-26T04:50:57.239Z,77.04
2017-07-26T04:53:28.653Z,77.14
2017-07-26T04:56:00.378Z,76.91
2017-07-26T04:58:31.769Z,76.84
2017-07-26T05:01:03.237Z,76.92
2017-07-26T05:03:35.010Z,76.69
2017-07-26T05:06:08.046Z,76.62
2017-07-26T05:08:39.509Z,76.65
2017-07-26T05:11:10.941Z,76.88
2017-07-26T05:13:42.479Z,76.74
2017-07-26T05:16:14.047Z,76.71
2017-07-26T05:18:45.933Z,76.99
2017-07-26T05:21:17.414Z,76.73
2017-07-26T05:23:48.893Z,76.90
2017-07-26T05:26:20.476Z,76.78
2017-07-26T05:28:52.024Z,76.63
2017-07-26T05:31:23.459Z,76.56
2017-07-26T05:33:55.310Z,76.48
2017-07-26T05:36:26.710Z,76.27
2017-07-26T05:38:58.096Z,76.15
2017-07-26T05:41:29.712Z,76.22
2017-07-26T05:44:01.155Z,76.42
2017-07-26T05:46:32.539Z,76.25
2017-07-26T05:49:04.431Z,76.18
2017-07-26T05:51:35.917Z,75.97
2017-07-26T05:54:07.382Z,75.74
2017-07-26T05:56:38.788Z,75.58
2017-07-26T05:59:10.217Z,75.30
2017-07-26T06:01:41.755Z,75.15
2017-07-26T06:04:15.162Z,75.05
2017-07-26T06:06:46.624Z,75.07
2017-07-26T06:09:18.141Z,74.79
2017-07-26T06:11:49.625Z,74.79
2017-07-26T06:14:21.052Z,74.84
2017-07-26T06:16:52.476Z,74.71
2017-07-26T06:19:24.296Z,74.94
2017-07-26T06:21:55.868Z,74.98
2017-07-26T06:24:27.273Z,74.99
2017-07-26T06:26:58.729Z,75.25
2017-07-26T06:29:30.093Z,75.12
2017-07-26T06:32:03.572Z,75.15
2017-07-26T06:34:36.469Z,74.99
2017-07-26T06:37:07.875Z,74.83
2017-07-26T06:39:40.007Z,74.31
2017-07-26T06:42:12.226Z,74.26
2017-07-26T06:44:44.542Z,74.09
2017-07-26T06:47:18.425Z,73.70
2017-07-26T06:49:53.045Z,73.24
2017-07-26T06:52:24.729Z,72.97
2017-07-26T06:54:56.119Z,72.92
2017-07-26T06:57:27.531Z,72.94
2017-07-26T06:59:59.022Z,73.11
2017-07-26T07:02:30.409Z,72.81
2017-07-26T07:05:02.251Z,72.69
2017-07-26T07:07:33.674Z,72.50
2017-07-26T07:10:06.000Z,72.16
2017-07-26T07:12:37.808Z,72.30
2017-07-26T07:15:10.219Z,72.36
2017-07-26T07:17:42.145Z,72.47
2017-07-26T07:20:15.961Z,72.38
2017-07-26T07:22:47.866Z,72.71
2017-07-26T07:25:19.359Z,72.40
2017-07-26T07:27:50.916Z,72.57
2017-07-26T07:30:22.397Z,72.15
2017-07-26T07:32:54.020Z,72.87
2017-07-26T07:35:25.962Z,73.21
2017-07-26T07:37:57.942Z,73.01
2017-07-26T07:40:29.432Z,73.35
2017-07-26T07:43:05.250Z,73.66
2017-07-26T07:45:37.046Z,73.60
2017-07-26T07:48:09.636Z,74.07
2017-07-26T07:50:42.041Z,74.01
2017-07-26T07:53:14.063Z,73.67
2017-07-26T07:55:48.005Z,74.19
2017-07-26T07:58:24.220Z,73.45
2017-07-26T08:01:03.217Z,72.88
2017-07-26T08:03:40.435Z,72.95
2017-07-26T08:06:13.548Z,72.75
2017-07-26T08:08:47.129Z,72.92
2017-07-26T08:11:23.380Z,72.88
2017-07-26T08:13:57.595Z,72.44
2017-07-26T08:16:30.046Z,71.69
2017-07-26T08:19:07.187Z,71.55
2017-07-26T08:21:40.502Z,70.76
2017-07-26T08:27:24.536Z,68.78
2017-07-26T08:30:19.565Z,67.15
2017-07-26T08:35:48.630Z,65.18
2017-07-26T08:38:39.398Z,64.40
2017-07-26T08:41:18.172Z,63.54
2017-07-26T08:43:56.109Z,63.47
2017-07-26T08:46:37.678Z,62.56
2017-07-26T08:49:24.724Z,62.99
2017-07-26T08:52:07.188Z,63.52
2017-07-26T08:54:47.111Z,63.49
2017-07-26T08:57:31.010Z,63.66
2017-07-26T09:03:08.268Z,63.27
2017-07-26T09:39:48.817Z,51.64
2017-07-26T10:11:01.788Z,50.40
2017-07-26T10:15:30.338Z,48.67
2017-07-26T10:18:28.211Z,48.27
2017-07-26T10:21:26.970Z,46.15
2017-07-26T10:31:40.649Z,46.40
2017-07-26T10:34:19.367Z,47.42
2017-07-26T10:36:54.681Z,47.83
2017-07-26T10:39:30.755Z,48.34
2017-07-26T10:42:06.967Z,47.11
2017-07-26T10:44:40.326Z,46.19
2017-07-26T10:47:14.757Z,45.63
2017-07-26T10:49:47.077Z,45.25
2017-07-26T10:52:21.489Z,46.28
2017-07-26T10:54:55.860Z,47.19
2017-07-26T10:57:29.645Z,47.26
2017-07-26T11:00:09.878Z,46.54
2017-07-26T11:02:54.830Z,47.84
2017-07-26T11:05:40.096Z,47.52
2017-07-26T11:08:21.300Z,47.49
2017-07-26T11:10:57.155Z,46.15
2017-07-26T11:13:31.454Z,44.79
2017-07-26T11:16:07.436Z,44.06
2017-07-26T11:18:41.920Z,43.94
2017-07-26T11:21:17.747Z,44.19
2017-07-26T11:23:51.743Z,44.25
2017-07-26T11:26:28.833Z,44.62
2017-07-26T11:29:05.423Z,44.63
2017-07-26T11:31:46.424Z,42.49
2017-07-26T11:34:29.442Z,40.77
2017-07-26T11:37:10.486Z,40.55
2017-07-26T11:42:38.124Z,42.43
2017-07-26T11:45:10.065Z,42.40
2017-07-26T11:47:42.054Z,43.12
2017-07-26T11:50:13.889Z,43.26
2017-07-26T11:52:45.990Z,43.94
2017-07-26T11:55:17.614Z,44.87
2017-07-26T11:57:49.009Z,45.71
2017-07-26T12:00:20.932Z,47.08
2017-07-26T12:02:52.372Z,46.79
2017-07-26T12:05:23.988Z,47.11
2017-07-26T12:07:55.977Z,46.77
2017-07-26T12:10:27.424Z,47.62
2017-07-26T12:12:58.848Z,45.60
2017-07-26T12:15:30.758Z,45.20
2017-07-26T12:18:03.883Z,45.44
2017-07-26T12:20:35.394Z,44.78
2017-07-26T12:23:10.489Z,44.02
2017-07-26T12:25:42.110Z,41.55
2017-07-26T12:28:13.626Z,39.18
2017-07-26T12:30:45.408Z,39.78
2017-07-26T12:33:16.933Z,39.63
2017-07-26T12:35:48.745Z,40.55
2017-07-26T12:38:20.342Z,41.93
2017-07-26T12:40:51.948Z,41.14
2017-07-26T12:43:23.907Z,41.18
2017-07-26T12:45:55.396Z,41.17
2017-07-26T12:48:26.847Z,42.36
2017-07-26T12:50:58.651Z,42.56
2017-07-26T12:53:30.078Z,41.93
2017-07-26T12:56:03.176Z,38.93
2017-07-26T12:58:34.984Z,36.48
2017-07-26T13:01:06.360Z,36.10
2017-07-26T13:03:37.763Z,34.79
2017-07-26T13:06:09.499Z,34.60
2017-07-26T13:08:40.848Z,33.41
2017-07-26T13:11:12.441Z,32.62
2017-07-26T13:13:44.412Z,31.51
2017-07-26T13:16:16.341Z,30.52
2017-07-26T13:18:47.761Z,30.11
2017-07-26T13:21:19.435Z,30.56
2017-07-26T13:23:50.869Z,32.42
2017-07-26T13:26:22.278Z,31.56
2017-07-26T13:28:54.000Z,30.27
2017-07-26T13:31:25.408Z,29.61
2017-07-26T13:33:57.210Z,30.44
2017-07-26T13:36:28.856Z,30.83
2017-07-26T13:39:00.257Z,31.54
2017-07-26T13:41:31.596Z,30.08
2017-07-26T13:44:05.066Z,27.90
2017-07-26T13:46:36.498Z,26.96
2017-07-26T13:49:08.177Z,26.54
2017-07-26T13:51:39.524Z,27.46
2017-07-26T13:54:13.610Z,28.07
2017-07-26T13:56:46.517Z,27.47
2017-07-26T13:59:19.526Z,26.00
2017-07-26T14:01:51.224Z,23.69
2017-07-26T14:04:25.181Z,24.32
2017-07-26T14:06:59.337Z,25.62
2017-07-26T14:09:34.368Z,26.69
2017-07-26T14:12:09.005Z,28.69
2017-07-26T14:14:44.149Z,28.59
2017-07-26T14:20:12.924Z,28.29
2017-07-26T14:22:45.219Z,29.83
2017-07-26T14:25:17.564Z,31.29
2017-07-26T14:27:48.987Z,33.29
2017-07-26T14:30:20.712Z,35.02
2017-07-26T14:32:52.251Z,35.14
2017-07-26T14:35:23.954Z,34.71
2017-07-26T14:37:55.419Z,33.23
2017-07-26T14:40:27.417Z,31.29
2017-07-26T14:42:59.733Z,32.12
2017-07-26T14:45:31.474Z,30.40
2017-07-26T14:48:05.171Z,28.30
2017-07-26T14:50:37.220Z,29.53
2017-07-26T14:53:09.544Z,30.24
2017-07-26T14:55:41.932Z,30.96
2017-07-26T14:58:14.430Z,31.39
2017-07-26T15:00:46.469Z,31.40
2017-07-26T15:03:18.187Z,32.11
2017-07-26T15:05:50.807Z,32.21
2017-07-26T15:08:22.998Z,31.20
2017-07-26T15:10:55.050Z,29.78
2017-07-26T15:13:26.501Z,30.38
2017-07-26T15:15:59.865Z,30.85
2017-07-26T15:18:31.526Z,30.84
2017-07-26T15:21:03.939Z,31.39
2017-07-26T15:23:35.915Z,31.51
2017-07-26T15:26:08.766Z,31.75
2017-07-26T15:28:40.661Z,28.51
2017-07-26T15:31:13.046Z,29.29
2017-07-26T15:33:44.554Z,29.87
2017-07-26T15:36:21.064Z,30.76
2017-07-26T15:38:52.627Z,31.71
2017-07-26T15:41:24.079Z,32.50
2017-07-26T15:43:55.862Z,33.42
2017-07-26T15:46:27.938Z,33.96
2017-07-26T15:48:59.920Z,34.11
2017-07-26T15:51:31.923Z,36.77
2017-07-26T15:54:08.295Z,36.82
2017-07-26T15:56:40.108Z,36.50
2017-07-26T15:59:11.695Z,35.19
2017-07-26T16:01:44.388Z,34.47
2017-07-26T16:04:16.546Z,33.96
2017-07-26T16:06:48.382Z,33.55
2017-07-26T16:09:20.237Z,34.81
2017-07-26T16:11:51.872Z,35.93
2017-07-26T16:14:24.949Z,34.40
2017-07-26T16:16:56.626Z,35.90
2017-07-26T16:19:28.196Z,36.93
2017-07-26T16:22:00.043Z,38.44
2017-07-26T16:24:31.884Z,38.97
2017-07-26T16:27:03.702Z,40.03
2017-07-26T16:29:35.134Z,40.59
2017-07-26T16:32:07.188Z,41.36
2017-07-26T16:34:38.691Z,43.75
2017-07-26T16:37:10.262Z,45.20
2017-07-26T16:39:43.640Z,45.88
2017-07-26T16:42:16.237Z,46.15
2017-07-26T16:44:49.399Z,45.94
2017-07-26T16:47:21.818Z,46.07
2017-07-26T16:49:53.280Z,46.23
2017-07-26T16:52:26.085Z,45.72
2017-07-26T16:54:57.988Z,45.55
2017-07-26T16:57:30.801Z,46.08
2017-07-26T17:00:07.532Z,46.65
2017-07-26T17:02:40.772Z,47.32
2017-07-26T17:05:13.729Z,47.68
2017-07-26T17:07:46.958Z,47.86
2017-07-26T17:10:20.101Z,47.99
2017-07-26T17:12:51.755Z,47.85
2017-07-26T17:15:24.020Z,47.42
2017-07-26T17:18:05.900Z,47.76
2017-07-26T17:20:44.903Z,47.44
2017-07-26T17:23:19.137Z,47.52
2017-07-26T17:25:50.621Z,47.29
2017-07-26T17:28:22.609Z,46.46
2017-07-26T17:30:56.483Z,45.42
2017-07-26T17:33:29.299Z,44.93
2017-07-26T17:36:03.674Z,44.32
2017-07-26T17:38:35.290Z,43.54
2017-07-26T17:41:07.478Z,43.08
2017-07-26T17:43:42.703Z,42.42
2017-07-26T17:46:14.921Z,43.62
2017-07-26T17:48:48.818Z,40.41
2017-07-26T17:51:21.735Z,38.51
2017-07-26T17:53:53.904Z,38.50
2017-07-26T17:56:29.867Z,41.64
2017-07-26T17:59:14.689Z,39.10
2017-07-26T18:01:49.539Z,39.81
2017-07-26T18:04:21.818Z,40.57
2017-07-26T18:07:01.004Z,40.83
2017-07-26T18:09:35.656Z,42.69
2017-07-26T18:12:13.333Z,41.50
2017-07-26T18:14:45.250Z,41.94
2017-07-26T18:17:19.721Z,42.25
2017-07-26T18:19:52.304Z,43.97
2017-07-26T18:22:24.432Z,42.89
2017-07-26T18:24:57.932Z,45.58
2017-07-26T18:27:34.624Z,44.87
2017-07-26T18:30:11.619Z,43.71
2017-07-26T18:32:45.106Z,44.19
2017-07-26T18:35:22.079Z,44.33
2017-07-26T18:37:58.951Z,44.91
2017-07-26T18:40:35.198Z,45.13
2017-07-26T18:43:12.343Z,45.51
2017-07-26T18:45:44.401Z,46.01
2017-07-26T18:48:20.824Z,46.32
2017-07-26T18:50:52.547Z,46.60
2017-07-26T18:53:24.309Z,47.09
2017-07-26T18:55:56.171Z,47.53
2017-07-26T18:58:27.781Z,48.97
2017-07-26T19:00:59.424Z,48.19
2017-07-26T19:03:31.321Z,48.61
2017-07-26T19:06:03.722Z,49.57
2017-07-26T19:08:35.356Z,49.37
2017-07-26T19:11:08.581Z,49.26
2017-07-26T19:13:40.874Z,49.73
2017-07-26T19:16:12.636Z,49.81
2017-07-26T19:18:44.883Z,50.01
2017-07-26T19:21:16.301Z,50.34
2017-07-26T19:23:48.834Z,50.33
2017-07-26T19:26:20.377Z,50.69
2017-07-26T19:28:52.153Z,50.85
2017-07-26T19:31:23.757Z,50.92
2017-07-26T19:33:55.171Z,50.78
2017-07-26T19:36:27.093Z,50.94
2017-07-26T19:38:58.502Z,51.24
2017-07-26T19:41:30.165Z,51.10
2017-07-26T19:44:02.185Z,51.28
2017-07-26T19:46:34.135Z,51.78
2017-07-26T19:49:05.610Z,51.28
2017-07-26T19:51:37.271Z,51.66
2017-07-26T19:54:15.420Z,51.73
2017-07-26T19:56:47.221Z,51.88
2017-07-26T19:59:35.090Z,52.21
2017-07-26T20:05:04.770Z,52.67
2017-07-26T20:07:38.995Z,52.90
2017-07-26T20:10:12.814Z,52.92
2017-07-26T20:12:45.725Z,53.07
2017-07-26T20:15:18.694Z,53.39
2017-07-26T20:17:53.742Z,53.57
2017-07-26T20:20:29.993Z,54.03
2017-07-26T20:23:06.299Z,54.28
2017-07-26T20:25:41.039Z,54.54
2017-07-26T20:28:15.588Z,54.83
2017-07-26T20:30:48.586Z,54.93
2017-07-26T20:33:20.312Z,55.24
2017-07-26T20:35:51.877Z,55.47
2017-07-26T20:38:24.378Z,55.71
2017-07-26T20:40:56.024Z,55.81
2017-07-26T20:43:28.252Z,56.01
2017-07-26T20:46:00.441Z,56.00
2017-07-26T20:48:32.379Z,55.96
2017-07-26T20:51:04.861Z,55.81
2017-07-26T20:53:36.900Z,56.12
2017-07-26T20:56:13.435Z,56.22
2017-07-26T20:58:45.937Z,56.16
2017-07-26T21:01:18.311Z,56.16
2017-07-26T21:03:50.365Z,56.33
2017-07-26T21:06:23.815Z,56.51
2017-07-26T21:08:56.263Z,56.78
2017-07-26T21:11:28.689Z,57.11
2017-07-26T21:14:00.417Z,57.23
2017-07-26T21:16:32.563Z,57.38
2017-07-26T21:19:06.560Z,57.64
2017-07-26T21:21:38.162Z,57.68
2017-07-26T21:24:10.800Z,57.69
2017-07-26T21:26:42.373Z,57.97
2017-07-26T21:29:14.994Z,58.06
2017-07-26T21:31:46.502Z,58.19
2017-07-26T21:34:20.067Z,58.09
2017-07-26T21:36:53.323Z,58.24
2017-07-26T21:39:25.243Z,58.35
2017-07-26T21:41:57.053Z,58.60
2017-07-26T21:44:30.379Z,58.84
2017-07-26T21:47:03.908Z,59.01
2017-07-26T21:49:37.685Z,59.40
2017-07-26T21:52:09.986Z,59.39
2017-07-26T21:54:42.902Z,59.71
2017-07-26T21:57:15.211Z,59.95
2017-07-26T21:59:47.141Z,60.10
2017-07-26T22:02:20.477Z,60.32
2017-07-26T22:04:52.801Z,60.58
2017-07-26T22:07:24.803Z,60.69
2017-07-26T22:09:57.205Z,60.81
2017-07-26T22:12:31.081Z,61.05
2017-07-26T22:15:03.778Z,61.12
2017-07-26T22:17:37.033Z,61.23
2017-07-26T22:20:08.499Z,61.30
2017-07-26T22:22:39.893Z,61.62
2017-07-26T22:25:11.591Z,61.91
2017-07-26T22:27:43.652Z,62.02
2017-07-26T22:32:50.634Z,62.09
2017-07-26T22:35:22.316Z,62.02
2017-07-26T22:37:54.593Z,62.11
2017-07-26T22:40:26.063Z,62.31
2017-07-26T22:42:59.127Z,62.51
2017-07-26T22:45:31.288Z,62.58
2017-07-26T22:48:03.499Z,62.40
2017-07-26T22:50:36.803Z,62.49
2017-07-26T22:53:09.113Z,62.87
2017-07-26T22:55:40.693Z,62.75
2017-07-26T22:58:14.355Z,63.05
2017-07-26T23:00:46.152Z,63.05
2017-07-26T23:03:17.676Z,62.84
2017-07-26T23:05:49.216Z,62.96
2017-07-26T23:08:22.370Z,62.78
2017-07-26T23:10:56.459Z,62.93
2017-07-26T23:13:30.635Z,62.67
2017-07-26T23:16:08.171Z,62.68
2017-07-26T23:18:44.642Z,62.54
2017-07-26T23:21:21.292Z,62.45
2017-07-26T23:23:53.267Z,62.38
2017-07-26T23:26:24.660Z,62.16
2017-07-26T23:28:55.990Z,62.08
2017-07-26T23:31:58.132Z,61.86
2017-07-26T23:34:29.420Z,61.70
2017-07-26T23:37:00.727Z,61.66
2017-07-26T23:39:32.417Z,61.62
2017-07-26T23:42:04.576Z,61.49
2017-07-26T23:44:36.187Z,61.78
2017-07-26T23:47:07.484Z,61.75
2017-07-26T23:49:38.759Z,62.06
2017-07-26T23:52:14.572Z,62.07
2017-07-26T23:54:45.875Z,62.34
2017-07-26T23:57:17.653Z,62.30
2017-07-26T23:59:48.929Z,62.23
